Terminal Aerodrome Forecast
Issued by NWS

Home | Current Version | Previous Version | Text Only | Print | Product List | Glossary On
Versions: 1 2 3 4 5 6 7 8 9 10 11 12 13 14 15 16 17 18 19 20 21 22 23
987
FTUS43 KABR 261723
TAFATY
TAF
KATY 261723Z 2618/2718 30020G28KT P6SM SKC
     FM270000 31013KT P6SM SKC
     FM270200 30009KT P6SM SKC
     FM271700 32013KT P6SM SKC=

USA.gov is the U.S. government's official web portal to all federal, state and local government web resources and services.